sensor_id;sensor_type;location;lat;lon;timestamp;P1;durP1;ratioP1;P2;durP2;ratioP2
39612;SDS011;25303;48.896;13.342;2023-04-28T00:00:16;3.45;;;1.20;;
39612;SDS011;25303;48.896;13.342;2023-04-28T00:02:59;3.00;;;1.30;;
39612;SDS011;25303;48.896;13.342;2023-04-28T00:05:42;2.38;;;1.08;;
39612;SDS011;25303;48.896;13.342;2023-04-28T00:08:26;4.22;;;1.50;;
39612;SDS011;25303;48.896;13.342;2023-04-28T00:11:09;3.97;;;1.40;;
39612;SDS011;25303;48.896;13.342;2023-04-28T00:13:52;2.03;;;1.15;;
39612;SDS011;25303;48.896;13.342;2023-04-28T00:16:35;2.30;;;1.13;;
39612;SDS011;25303;48.896;13.342;2023-04-28T00:19:19;3.15;;;1.08;;
39612;SDS011;25303;48.896;13.342;2023-04-28T00:22:02;3.53;;;1.17;;
39612;SDS011;25303;48.896;13.342;2023-04-28T00:24:46;2.80;;;1.45;;
39612;SDS011;25303;48.896;13.342;2023-04-28T00:27:29;2.65;;;1.23;;
39612;SDS011;25303;48.896;13.342;2023-04-28T00:30:12;6.30;;;1.38;;
39612;SDS011;25303;48.896;13.342;2023-04-28T00:32:55;4.35;;;1.13;;
39612;SDS011;25303;48.896;13.342;2023-04-28T00:35:38;5.07;;;1.30;;
39612;SDS011;25303;48.896;13.342;2023-04-28T00:38:22;2.78;;;1.23;;
39612;SDS011;25303;48.896;13.342;2023-04-28T00:41:08;4.03;;;1.45;;
39612;SDS011;25303;48.896;13.342;2023-04-28T00:43:51;3.30;;;1.42;;
39612;SDS011;25303;48.896;13.342;2023-04-28T00:46:34;3.45;;;1.20;;
39612;SDS011;25303;48.896;13.342;2023-04-28T00:49:17;2.83;;;1.38;;
39612;SDS011;25303;48.896;13.342;2023-04-28T00:52:00;3.70;;;1.52;;
39612;SDS011;25303;48.896;13.342;2023-04-28T00:54:47;3.25;;;1.40;;
39612;SDS011;25303;48.896;13.342;2023-04-28T00:57:32;5.22;;;1.60;;
39612;SDS011;25303;48.896;13.342;2023-04-28T01:00:15;5.00;;;1.40;;
39612;SDS011;25303;48.896;13.342;2023-04-28T01:02:59;5.32;;;1.27;;
39612;SDS011;25303;48.896;13.342;2023-04-28T01:05:47;3.70;;;1.30;;
39612;SDS011;25303;48.896;13.342;2023-04-28T01:08:30;3.45;;;1.30;;
39612;SDS011;25303;48.896;13.342;2023-04-28T01:11:15;3.42;;;1.27;;
39612;SDS011;25303;48.896;13.342;2023-04-28T01:14:18;3.80;;;1.00;;
39612;SDS011;25303;48.896;13.342;2023-04-28T01:17:01;4.20;;;1.08;;
39612;SDS011;25303;48.896;13.342;2023-04-28T01:19:44;3.97;;;1.45;;
39612;SDS011;25303;48.896;13.342;2023-04-28T01:22:28;3.35;;;1.17;;
39612;SDS011;25303;48.896;13.342;2023-04-28T01:25:12;3.03;;;1.30;;
39612;SDS011;25303;48.896;13.342;2023-04-28T01:27:55;3.72;;;1.50;;
39612;SDS011;25303;48.896;13.342;2023-04-28T01:30:38;3.28;;;1.00;;
39612;SDS011;25303;48.896;13.342;2023-04-28T01:33:21;4.00;;;1.10;;
39612;SDS011;25303;48.896;13.342;2023-04-28T01:36:04;2.83;;;1.23;;
39612;SDS011;25303;48.896;13.342;2023-04-28T01:38:47;2.40;;;1.10;;
39612;SDS011;25303;48.896;13.342;2023-04-28T01:41:31;3.38;;;1.13;;
39612;SDS011;25303;48.896;13.342;2023-04-28T01:44:17;3.20;;;1.40;;
39612;SDS011;25303;48.896;13.342;2023-04-28T01:49:44;2.95;;;1.17;;
39612;SDS011;25303;48.896;13.342;2023-04-28T01:52:29;4.28;;;1.13;;
39612;SDS011;25303;48.896;13.342;2023-04-28T01:55:12;4.38;;;1.40;;
39612;SDS011;25303;48.896;13.342;2023-04-28T01:57:57;2.22;;;1.10;;
39612;SDS011;25303;48.896;13.342;2023-04-28T02:00:42;2.33;;;1.20;;
39612;SDS011;25303;48.896;13.342;2023-04-28T02:03:26;3.33;;;1.10;;
39612;SDS011;25303;48.896;13.342;2023-04-28T02:06:10;2.63;;;1.27;;
39612;SDS011;25303;48.896;13.342;2023-04-28T02:08:53;2.08;;;1.00;;
39612;SDS011;25303;48.896;13.342;2023-04-28T02:11:35;3.60;;;1.10;;
39612;SDS011;25303;48.896;13.342;2023-04-28T02:14:20;3.17;;;1.23;;
39612;SDS011;25303;48.896;13.342;2023-04-28T02:17:04;3.40;;;1.08;;
39612;SDS011;25303;48.896;13.342;2023-04-28T02:19:47;2.55;;;1.10;;
39612;SDS011;25303;48.896;13.342;2023-04-28T02:22:30;2.30;;;1.10;;
39612;SDS011;25303;48.896;13.342;2023-04-28T02:25:12;2.53;;;1.38;;
39612;SDS011;25303;48.896;13.342;2023-04-28T02:27:55;3.42;;;1.27;;
39612;SDS011;25303;48.896;13.342;2023-04-28T02:30:41;3.92;;;1.10;;
39612;SDS011;25303;48.896;13.342;2023-04-28T02:33:24;3.45;;;1.00;;
39612;SDS011;25303;48.896;13.342;2023-04-28T02:36:07;2.60;;;1.10;;
39612;SDS011;25303;48.896;13.342;2023-04-28T02:38:50;4.40;;;1.20;;
39612;SDS011;25303;48.896;13.342;2023-04-28T02:41:33;3.60;;;1.00;;
39612;SDS011;25303;48.896;13.342;2023-04-28T02:44:16;2.03;;;1.10;;
39612;SDS011;25303;48.896;13.342;2023-04-28T02:47:00;2.58;;;1.00;;
39612;SDS011;25303;48.896;13.342;2023-04-28T02:49:44;2.03;;;0.93;;
39612;SDS011;25303;48.896;13.342;2023-04-28T02:52:27;2.22;;;0.93;;
39612;SDS011;25303;48.896;13.342;2023-04-28T02:55:10;1.50;;;0.80;;
39612;SDS011;25303;48.896;13.342;2023-04-28T02:57:53;4.00;;;1.08;;
39612;SDS011;25303;48.896;13.342;2023-04-28T03:00:36;2.28;;;1.00;;
39612;SDS011;25303;48.896;13.342;2023-04-28T03:03:20;2.05;;;0.90;;
39612;SDS011;25303;48.896;13.342;2023-04-28T03:06:03;2.85;;;0.88;;
39612;SDS011;25303;48.896;13.342;2023-04-28T03:08:47;2.60;;;1.10;;
39612;SDS011;25303;48.896;13.342;2023-04-28T03:11:30;4.18;;;1.10;;
39612;SDS011;25303;48.896;13.342;2023-04-28T03:14:13;3.13;;;1.20;;
39612;SDS011;25303;48.896;13.342;2023-04-28T03:16:57;3.22;;;1.00;;
39612;SDS011;25303;48.896;13.342;2023-04-28T03:19:41;2.33;;;0.88;;
39612;SDS011;25303;48.896;13.342;2023-04-28T03:22:24;2.28;;;1.40;;
39612;SDS011;25303;48.896;13.342;2023-04-28T03:25:07;1.98;;;1.10;;
39612;SDS011;25303;48.896;13.342;2023-04-28T03:27:59;2.70;;;1.10;;
39612;SDS011;25303;48.896;13.342;2023-04-28T03:30:42;0.90;;;0.75;;
39612;SDS011;25303;48.896;13.342;2023-04-28T03:33:24;1.92;;;0.90;;
39612;SDS011;25303;48.896;13.342;2023-04-28T03:36:09;3.55;;;1.20;;
39612;SDS011;25303;48.896;13.342;2023-04-28T03:38:52;2.05;;;0.80;;
39612;SDS011;25303;48.896;13.342;2023-04-28T03:41:35;2.95;;;0.82;;
39612;SDS011;25303;48.896;13.342;2023-04-28T03:44:56;2.00;;;1.10;;
39612;SDS011;25303;48.896;13.342;2023-04-28T03:47:39;2.33;;;0.98;;
39612;SDS011;25303;48.896;13.342;2023-04-28T03:50:22;2.78;;;1.27;;
39612;SDS011;25303;48.896;13.342;2023-04-28T03:53:08;2.83;;;1.33;;
39612;SDS011;25303;48.896;13.342;2023-04-28T03:55:51;4.50;;;1.10;;
39612;SDS011;25303;48.896;13.342;2023-04-28T03:58:34;2.10;;;0.98;;
39612;SDS011;25303;48.896;13.342;2023-04-28T04:01:17;4.60;;;1.05;;
39612;SDS011;25303;48.896;13.342;2023-04-28T04:04:02;2.78;;;1.20;;
39612;SDS011;25303;48.896;13.342;2023-04-28T04:06:45;2.33;;;1.05;;
39612;SDS011;25303;48.896;13.342;2023-04-28T04:09:29;2.67;;;1.02;;
39612;SDS011;25303;48.896;13.342;2023-04-28T04:12:13;3.38;;;1.10;;
39612;SDS011;25303;48.896;13.342;2023-04-28T04:14:56;2.55;;;1.08;;
39612;SDS011;25303;48.896;13.342;2023-04-28T04:17:39;2.25;;;1.05;;
39612;SDS011;25303;48.896;13.342;2023-04-28T04:20:22;2.22;;;1.00;;
39612;SDS011;25303;48.896;13.342;2023-04-28T04:23:05;2.55;;;0.90;;
39612;SDS011;25303;48.896;13.342;2023-04-28T04:25:49;3.47;;;1.05;;
39612;SDS011;25303;48.896;13.342;2023-04-28T04:28:32;2.38;;;1.15;;
39612;SDS011;25303;48.896;13.342;2023-04-28T04:31:17;2.65;;;1.13;;
39612;SDS011;25303;48.896;13.342;2023-04-28T04:34:01;3.35;;;1.00;;
39612;SDS011;25303;48.896;13.342;2023-04-28T04:36:44;2.30;;;1.10;;
39612;SDS011;25303;48.896;13.342;2023-04-28T04:39:28;3.05;;;1.30;;
39612;SDS011;25303;48.896;13.342;2023-04-28T04:42:12;2.97;;;1.00;;
39612;SDS011;25303;48.896;13.342;2023-04-28T04:45:24;2.03;;;1.02;;
39612;SDS011;25303;48.896;13.342;2023-04-28T04:48:07;3.33;;;1.10;;
39612;SDS011;25303;48.896;13.342;2023-04-28T04:50:51;2.90;;;1.02;;
39612;SDS011;25303;48.896;13.342;2023-04-28T04:53:34;2.58;;;1.10;;
39612;SDS011;25303;48.896;13.342;2023-04-28T04:56:19;3.58;;;1.27;;
39612;SDS011;25303;48.896;13.342;2023-04-28T04:59:05;2.30;;;0.90;;
39612;SDS011;25303;48.896;13.342;2023-04-28T05:01:57;1.45;;;0.90;;
39612;SDS011;25303;48.896;13.342;2023-04-28T05:04:40;2.10;;;0.98;;
39612;SDS011;25303;48.896;13.342;2023-04-28T05:07:24;2.30;;;1.25;;
39612;SDS011;25303;48.896;13.342;2023-04-28T05:10:08;2.67;;;1.27;;
39612;SDS011;25303;48.896;13.342;2023-04-28T05:12:53;2.60;;;1.20;;
39612;SDS011;25303;48.896;13.342;2023-04-28T05:15:37;2.58;;;1.10;;
39612;SDS011;25303;48.896;13.342;2023-04-28T05:18:39;3.33;;;1.10;;
39612;SDS011;25303;48.896;13.342;2023-04-28T05:21:23;2.60;;;1.17;;
39612;SDS011;25303;48.896;13.342;2023-04-28T05:24:07;1.52;;;1.00;;
39612;SDS011;25303;48.896;13.342;2023-04-28T05:26:50;4.35;;;1.40;;
39612;SDS011;25303;48.896;13.342;2023-04-28T05:29:35;2.65;;;1.02;;
39612;SDS011;25303;48.896;13.342;2023-04-28T05:32:19;3.97;;;1.30;;
39612;SDS011;25303;48.896;13.342;2023-04-28T05:35:04;6.80;;;1.70;;
39612;SDS011;25303;48.896;13.342;2023-04-28T05:37:48;2.72;;;1.30;;
39612;SDS011;25303;48.896;13.342;2023-04-28T05:40:31;2.22;;;1.27;;
39612;SDS011;25303;48.896;13.342;2023-04-28T05:43:14;2.60;;;1.13;;
39612;SDS011;25303;48.896;13.342;2023-04-28T05:45:57;2.88;;;1.25;;
39612;SDS011;25303;48.896;13.342;2023-04-28T05:48:42;4.22;;;1.80;;
39612;SDS011;25303;48.896;13.342;2023-04-28T05:51:25;12.68;;;5.40;;
39612;SDS011;25303;48.896;13.342;2023-04-28T05:54:08;10.07;;;4.50;;
39612;SDS011;25303;48.896;13.342;2023-04-28T05:56:57;4.63;;;2.50;;
39612;SDS011;25303;48.896;13.342;2023-04-28T05:59:43;4.50;;;2.13;;
39612;SDS011;25303;48.896;13.342;2023-04-28T06:02:27;3.65;;;1.73;;
39612;SDS011;25303;48.896;13.342;2023-04-28T06:05:12;5.50;;;2.80;;
39612;SDS011;25303;48.896;13.342;2023-04-28T06:07:56;4.50;;;2.80;;
39612;SDS011;25303;48.896;13.342;2023-04-28T06:10:39;5.32;;;2.55;;
39612;SDS011;25303;48.896;13.342;2023-04-28T06:13:22;4.80;;;2.30;;
39612;SDS011;25303;48.896;13.342;2023-04-28T06:16:05;2.85;;;1.70;;
39612;SDS011;25303;48.896;13.342;2023-04-28T06:18:48;2.85;;;1.70;;
39612;SDS011;25303;48.896;13.342;2023-04-28T06:21:33;2.93;;;1.50;;
39612;SDS011;25303;48.896;13.342;2023-04-28T06:24:17;3.47;;;1.80;;
39612;SDS011;25303;48.896;13.342;2023-04-28T06:27:01;5.20;;;2.50;;
39612;SDS011;25303;48.896;13.342;2023-04-28T06:29:44;3.03;;;1.70;;
39612;SDS011;25303;48.896;13.342;2023-04-28T06:32:27;4.30;;;2.20;;
39612;SDS011;25303;48.896;13.342;2023-04-28T06:35:10;4.18;;;1.73;;
39612;SDS011;25303;48.896;13.342;2023-04-28T06:37:54;3.67;;;1.77;;
39612;SDS011;25303;48.896;13.342;2023-04-28T06:40:37;3.35;;;1.75;;
39612;SDS011;25303;48.896;13.342;2023-04-28T06:43:21;4.77;;;1.87;;
39612;SDS011;25303;48.896;13.342;2023-04-28T06:46:16;5.05;;;2.13;;
39612;SDS011;25303;48.896;13.342;2023-04-28T06:48:59;6.95;;;2.70;;
39612;SDS011;25303;48.896;13.342;2023-04-28T06:51:42;5.40;;;2.30;;
39612;SDS011;25303;48.896;13.342;2023-04-28T06:54:28;4.22;;;2.20;;
39612;SDS011;25303;48.896;13.342;2023-04-28T06:57:11;6.18;;;2.45;;
39612;SDS011;25303;48.896;13.342;2023-04-28T06:59:54;4.20;;;2.05;;
39612;SDS011;25303;48.896;13.342;2023-04-28T07:02:37;5.55;;;1.92;;
39612;SDS011;25303;48.896;13.342;2023-04-28T07:05:20;2.85;;;1.70;;
39612;SDS011;25303;48.896;13.342;2023-04-28T07:08:03;2.28;;;1.60;;
39612;SDS011;25303;48.896;13.342;2023-04-28T07:10:48;4.85;;;2.10;;
39612;SDS011;25303;48.896;13.342;2023-04-28T07:13:31;3.40;;;1.85;;
39612;SDS011;25303;48.896;13.342;2023-04-28T07:16:14;5.18;;;2.15;;
39612;SDS011;25303;48.896;13.342;2023-04-28T07:18:58;4.15;;;1.70;;
39612;SDS011;25303;48.896;13.342;2023-04-28T07:21:41;3.85;;;2.10;;
39612;SDS011;25303;48.896;13.342;2023-04-28T07:24:24;7.45;;;1.95;;
39612;SDS011;25303;48.896;13.342;2023-04-28T07:27:09;5.13;;;2.38;;
39612;SDS011;25303;48.896;13.342;2023-04-28T07:29:51;4.28;;;2.00;;
39612;SDS011;25303;48.896;13.342;2023-04-28T07:32:34;5.53;;;2.38;;
39612;SDS011;25303;48.896;13.342;2023-04-28T07:35:17;7.43;;;2.40;;
39612;SDS011;25303;48.896;13.342;2023-04-28T07:38:01;5.15;;;2.25;;
39612;SDS011;25303;48.896;13.342;2023-04-28T07:40:44;4.68;;;1.90;;
39612;SDS011;25303;48.896;13.342;2023-04-28T07:43:28;4.63;;;1.95;;
39612;SDS011;25303;48.896;13.342;2023-04-28T07:46:11;3.17;;;1.95;;
39612;SDS011;25303;48.896;13.342;2023-04-28T07:48:55;5.20;;;2.58;;
39612;SDS011;25303;48.896;13.342;2023-04-28T07:51:38;7.65;;;2.42;;
39612;SDS011;25303;48.896;13.342;2023-04-28T07:54:22;5.90;;;2.30;;
39612;SDS011;25303;48.896;13.342;2023-04-28T07:57:06;4.65;;;1.98;;
39612;SDS011;25303;48.896;13.342;2023-04-28T07:59:52;4.65;;;2.38;;
39612;SDS011;25303;48.896;13.342;2023-04-28T08:02:36;4.90;;;2.25;;
39612;SDS011;25303;48.896;13.342;2023-04-28T08:05:20;4.57;;;2.13;;
39612;SDS011;25303;48.896;13.342;2023-04-28T08:08:03;3.28;;;1.98;;
39612;SDS011;25303;48.896;13.342;2023-04-28T08:10:47;5.37;;;2.50;;
39612;SDS011;25303;48.896;13.342;2023-04-28T08:13:31;3.63;;;1.73;;
39612;SDS011;25303;48.896;13.342;2023-04-28T08:16:15;5.50;;;2.70;;
39612;SDS011;25303;48.896;13.342;2023-04-28T08:19:00;4.53;;;2.10;;
39612;SDS011;25303;48.896;13.342;2023-04-28T08:21:43;6.65;;;2.80;;
39612;SDS011;25303;48.896;13.342;2023-04-28T08:24:26;3.63;;;2.08;;
39612;SDS011;25303;48.896;13.342;2023-04-28T08:27:10;5.00;;;2.40;;
39612;SDS011;25303;48.896;13.342;2023-04-28T08:29:53;3.85;;;2.30;;
39612;SDS011;25303;48.896;13.342;2023-04-28T08:32:39;5.83;;;2.10;;
39612;SDS011;25303;48.896;13.342;2023-04-28T08:35:21;3.17;;;1.90;;
39612;SDS011;25303;48.896;13.342;2023-04-28T08:38:05;5.82;;;2.55;;
39612;SDS011;25303;48.896;13.342;2023-04-28T08:40:54;4.90;;;2.00;;
39612;SDS011;25303;48.896;13.342;2023-04-28T08:43:37;4.45;;;1.90;;
39612;SDS011;25303;48.896;13.342;2023-04-28T08:46:21;4.75;;;2.00;;
39612;SDS011;25303;48.896;13.342;2023-04-28T08:49:11;4.65;;;2.05;;
39612;SDS011;25303;48.896;13.342;2023-04-28T08:51:57;5.45;;;2.97;;
39612;SDS011;25303;48.896;13.342;2023-04-28T08:54:42;3.97;;;2.05;;
39612;SDS011;25303;48.896;13.342;2023-04-28T08:57:26;7.60;;;3.00;;
39612;SDS011;25303;48.896;13.342;2023-04-28T09:00:12;6.90;;;2.83;;
39612;SDS011;25303;48.896;13.342;2023-04-28T09:02:55;6.18;;;2.20;;
39612;SDS011;25303;48.896;13.342;2023-04-28T09:05:40;6.65;;;2.20;;
39612;SDS011;25303;48.896;13.342;2023-04-28T09:08:24;5.20;;;2.50;;
39612;SDS011;25303;48.896;13.342;2023-04-28T09:11:08;3.90;;;2.13;;
39612;SDS011;25303;48.896;13.342;2023-04-28T09:14:01;5.65;;;2.40;;
39612;SDS011;25303;48.896;13.342;2023-04-28T09:16:54;7.78;;;2.92;;
39612;SDS011;25303;48.896;13.342;2023-04-28T09:19:37;6.15;;;2.40;;
39612;SDS011;25303;48.896;13.342;2023-04-28T09:22:27;7.13;;;3.60;;
39612;SDS011;25303;48.896;13.342;2023-04-28T09:25:10;7.70;;;3.30;;
39612;SDS011;25303;48.896;13.342;2023-04-28T09:27:53;5.63;;;2.65;;
39612;SDS011;25303;48.896;13.342;2023-04-28T09:30:37;7.93;;;3.22;;
39612;SDS011;25303;48.896;13.342;2023-04-28T09:36:04;5.75;;;2.50;;
39612;SDS011;25303;48.896;13.342;2023-04-28T09:38:48;5.88;;;2.58;;
39612;SDS011;25303;48.896;13.342;2023-04-28T09:41:35;6.30;;;2.70;;
39612;SDS011;25303;48.896;13.342;2023-04-28T09:44:20;5.97;;;2.95;;
39612;SDS011;25303;48.896;13.342;2023-04-28T09:47:14;5.22;;;2.53;;
39612;SDS011;25303;48.896;13.342;2023-04-28T09:50:03;5.03;;;2.50;;
39612;SDS011;25303;48.896;13.342;2023-04-28T09:55:39;5.32;;;2.33;;
39612;SDS011;25303;48.896;13.342;2023-04-28T09:58:26;3.95;;;2.13;;
39612;SDS011;25303;48.896;13.342;2023-04-28T10:01:10;4.53;;;2.40;;
39612;SDS011;25303;48.896;13.342;2023-04-28T10:03:53;5.47;;;3.00;;
39612;SDS011;25303;48.896;13.342;2023-04-28T10:06:39;6.70;;;2.20;;
39612;SDS011;25303;48.896;13.342;2023-04-28T10:09:23;4.45;;;1.58;;
39612;SDS011;25303;48.896;13.342;2023-04-28T10:12:08;2.60;;;1.60;;
39612;SDS011;25303;48.896;13.342;2023-04-28T10:14:51;2.20;;;1.50;;
39612;SDS011;25303;48.896;13.342;2023-04-28T10:17:35;4.60;;;1.90;;
39612;SDS011;25303;48.896;13.342;2023-04-28T10:20:18;2.47;;;1.40;;
39612;SDS011;25303;48.896;13.342;2023-04-28T10:23:06;3.55;;;1.40;;
39612;SDS011;25303;48.896;13.342;2023-04-28T10:26:08;2.42;;;1.55;;
39612;SDS011;25303;48.896;13.342;2023-04-28T10:28:56;3.53;;;1.40;;
39612;SDS011;25303;48.896;13.342;2023-04-28T10:31:39;3.28;;;1.40;;
39612;SDS011;25303;48.896;13.342;2023-04-28T10:38:21;3.17;;;1.50;;
39612;SDS011;25303;48.896;13.342;2023-04-28T10:41:04;4.15;;;1.70;;
39612;SDS011;25303;48.896;13.342;2023-04-28T10:47:25;2.85;;;1.52;;
39612;SDS011;25303;48.896;13.342;2023-04-28T10:50:08;2.47;;;1.70;;
39612;SDS011;25303;48.896;13.342;2023-04-28T10:52:52;3.15;;;1.40;;
39612;SDS011;25303;48.896;13.342;2023-04-28T10:55:35;14.75;;;8.10;;
39612;SDS011;25303;48.896;13.342;2023-04-28T11:01:27;7.85;;;2.78;;
39612;SDS011;25303;48.896;13.342;2023-04-28T11:04:12;3.88;;;2.17;;
39612;SDS011;25303;48.896;13.342;2023-04-28T11:07:09;3.42;;;1.95;;
39612;SDS011;25303;48.896;13.342;2023-04-28T11:09:55;2.58;;;1.48;;
39612;SDS011;25303;48.896;13.342;2023-04-28T11:12:45;1.98;;;1.40;;
39612;SDS011;25303;48.896;13.342;2023-04-28T11:16:07;2.25;;;1.65;;
39612;SDS011;25303;48.896;13.342;2023-04-28T11:18:52;2.20;;;1.75;;
39612;SDS011;25303;48.896;13.342;2023-04-28T11:21:40;3.38;;;1.92;;
39612;SDS011;25303;48.896;13.342;2023-04-28T11:24:23;3.08;;;1.90;;
39612;SDS011;25303;48.896;13.342;2023-04-28T11:27:07;5.22;;;2.42;;
39612;SDS011;25303;48.896;13.342;2023-04-28T11:29:50;3.45;;;1.88;;
39612;SDS011;25303;48.896;13.342;2023-04-28T11:32:34;5.15;;;2.30;;
39612;SDS011;25303;48.896;13.342;2023-04-28T11:35:21;3.85;;;2.58;;
39612;SDS011;25303;48.896;13.342;2023-04-28T11:38:05;5.13;;;2.63;;
39612;SDS011;25303;48.896;13.342;2023-04-28T11:40:57;3.85;;;2.22;;
39612;SDS011;25303;48.896;13.342;2023-04-28T11:43:40;4.28;;;2.40;;
39612;SDS011;25303;48.896;13.342;2023-04-28T11:46:28;7.05;;;2.88;;
39612;SDS011;25303;48.896;13.342;2023-04-28T11:49:11;3.70;;;2.20;;
39612;SDS011;25303;48.896;13.342;2023-04-28T11:51:56;4.93;;;2.22;;
39612;SDS011;25303;48.896;13.342;2023-04-28T11:54:51;4.40;;;1.92;;
39612;SDS011;25303;48.896;13.342;2023-04-28T11:57:35;2.72;;;1.83;;
39612;SDS011;25303;48.896;13.342;2023-04-28T12:00:18;3.38;;;2.20;;
39612;SDS011;25303;48.896;13.342;2023-04-28T12:03:06;2.72;;;1.75;;
39612;SDS011;25303;48.896;13.342;2023-04-28T12:05:49;3.22;;;2.00;;
39612;SDS011;25303;48.896;13.342;2023-04-28T12:08:33;3.28;;;2.00;;
39612;SDS011;25303;48.896;13.342;2023-04-28T12:11:16;2.53;;;1.88;;
39612;SDS011;25303;48.896;13.342;2023-04-28T12:14:03;6.38;;;3.30;;
39612;SDS011;25303;48.896;13.342;2023-04-28T12:16:47;6.95;;;3.00;;
39612;SDS011;25303;48.896;13.342;2023-04-28T12:19:41;3.57;;;2.33;;
39612;SDS011;25303;48.896;13.342;2023-04-28T12:22:26;5.88;;;2.78;;
39612;SDS011;25303;48.896;13.342;2023-04-28T12:25:11;5.30;;;3.45;;
39612;SDS011;25303;48.896;13.342;2023-04-28T12:27:57;5.85;;;3.15;;
39612;SDS011;25303;48.896;13.342;2023-04-28T12:30:42;5.03;;;3.22;;
39612;SDS011;25303;48.896;13.342;2023-04-28T12:33:26;6.30;;;3.80;;
39612;SDS011;25303;48.896;13.342;2023-04-28T12:36:10;5.22;;;3.10;;
39612;SDS011;25303;48.896;13.342;2023-04-28T12:38:54;4.60;;;2.55;;
39612;SDS011;25303;48.896;13.342;2023-04-28T12:41:38;6.63;;;3.60;;
39612;SDS011;25303;48.896;13.342;2023-04-28T12:44:21;5.20;;;2.67;;
39612;SDS011;25303;48.896;13.342;2023-04-28T12:47:05;5.00;;;2.78;;
39612;SDS011;25303;48.896;13.342;2023-04-28T12:49:49;4.80;;;2.88;;
39612;SDS011;25303;48.896;13.342;2023-04-28T12:52:33;7.65;;;4.10;;
39612;SDS011;25303;48.896;13.342;2023-04-28T12:55:18;11.05;;;3.72;;
39612;SDS011;25303;48.896;13.342;2023-04-28T12:58:02;7.30;;;3.92;;
39612;SDS011;25303;48.896;13.342;2023-04-28T13:00:45;5.25;;;2.97;;
39612;SDS011;25303;48.896;13.342;2023-04-28T13:03:28;8.57;;;4.70;;
39612;SDS011;25303;48.896;13.342;2023-04-28T13:06:12;8.23;;;4.47;;
39612;SDS011;25303;48.896;13.342;2023-04-28T13:08:55;7.80;;;4.75;;
39612;SDS011;25303;48.896;13.342;2023-04-28T13:11:39;10.73;;;5.70;;
39612;SDS011;25303;48.896;13.342;2023-04-28T13:14:24;7.32;;;4.32;;
39612;SDS011;25303;48.896;13.342;2023-04-28T13:17:08;7.03;;;4.47;;
39612;SDS011;25303;48.896;13.342;2023-04-28T13:19:53;6.80;;;4.10;;
39612;SDS011;25303;48.896;13.342;2023-04-28T13:22:36;5.03;;;3.33;;
39612;SDS011;25303;48.896;13.342;2023-04-28T13:25:19;7.28;;;4.18;;
39612;SDS011;25303;48.896;13.342;2023-04-28T13:28:02;9.15;;;5.57;;
39612;SDS011;25303;48.896;13.342;2023-04-28T13:30:47;8.38;;;5.03;;
39612;SDS011;25303;48.896;13.342;2023-04-28T13:33:30;8.15;;;4.72;;
39612;SDS011;25303;48.896;13.342;2023-04-28T13:36:13;5.85;;;3.90;;
39612;SDS011;25303;48.896;13.342;2023-04-28T13:38:57;5.60;;;3.70;;
39612;SDS011;25303;48.896;13.342;2023-04-28T13:41:42;5.68;;;3.25;;
39612;SDS011;25303;48.896;13.342;2023-04-28T13:44:25;10.38;;;6.70;;
39612;SDS011;25303;48.896;13.342;2023-04-28T13:47:09;15.13;;;9.73;;
39612;SDS011;25303;48.896;13.342;2023-04-28T13:49:52;8.90;;;4.90;;
39612;SDS011;25303;48.896;13.342;2023-04-28T13:52:35;6.82;;;3.92;;
39612;SDS011;25303;48.896;13.342;2023-04-28T13:55:18;31.70;;;18.55;;
39612;SDS011;25303;48.896;13.342;2023-04-28T13:58:08;27.10;;;11.75;;
39612;SDS011;25303;48.896;13.342;2023-04-28T14:00:51;26.15;;;14.77;;
39612;SDS011;25303;48.896;13.342;2023-04-28T14:03:38;29.65;;;18.00;;
39612;SDS011;25303;48.896;13.342;2023-04-28T14:06:22;8.68;;;5.55;;
39612;SDS011;25303;48.896;13.342;2023-04-28T14:09:06;26.70;;;13.23;;
39612;SDS011;25303;48.896;13.342;2023-04-28T14:11:50;48.03;;;19.63;;
39612;SDS011;25303;48.896;13.342;2023-04-28T14:14:33;21.15;;;9.77;;
39612;SDS011;25303;48.896;13.342;2023-04-28T14:17:20;10.60;;;6.00;;
39612;SDS011;25303;48.896;13.342;2023-04-28T14:20:05;10.02;;;5.93;;
39612;SDS011;25303;48.896;13.342;2023-04-28T14:22:51;20.67;;;11.95;;
39612;SDS011;25303;48.896;13.342;2023-04-28T14:25:34;13.05;;;10.02;;
39612;SDS011;25303;48.896;13.342;2023-04-28T14:28:18;13.15;;;9.73;;
39612;SDS011;25303;48.896;13.342;2023-04-28T14:33:48;12.18;;;8.05;;
39612;SDS011;25303;48.896;13.342;2023-04-28T14:36:32;18.45;;;12.15;;
39612;SDS011;25303;48.896;13.342;2023-04-28T14:39:15;19.02;;;13.18;;
39612;SDS011;25303;48.896;13.342;2023-04-28T14:41:58;10.15;;;8.98;;
39612;SDS011;25303;48.896;13.342;2023-04-28T14:44:42;4.38;;;3.13;;
39612;SDS011;25303;48.896;13.342;2023-04-28T14:47:26;3.17;;;2.33;;
39612;SDS011;25303;48.896;13.342;2023-04-28T14:50:09;4.70;;;3.60;;
39612;SDS011;25303;48.896;13.342;2023-04-28T14:52:56;3.63;;;2.47;;
39612;SDS011;25303;48.896;13.342;2023-04-28T14:55:46;3.42;;;2.67;;
39612;SDS011;25303;48.896;13.342;2023-04-28T14:58:29;2.83;;;2.08;;
39612;SDS011;25303;48.896;13.342;2023-04-28T15:01:12;2.90;;;1.98;;
39612;SDS011;25303;48.896;13.342;2023-04-28T15:03:56;3.70;;;2.20;;
39612;SDS011;25303;48.896;13.342;2023-04-28T15:06:39;2.83;;;1.90;;
39612;SDS011;25303;48.896;13.342;2023-04-28T15:09:23;2.10;;;1.60;;
39612;SDS011;25303;48.896;13.342;2023-04-28T15:14:50;2.35;;;1.50;;
39612;SDS011;25303;48.896;13.342;2023-04-28T15:17:34;2.17;;;1.67;;
39612;SDS011;25303;48.896;13.342;2023-04-28T15:20:17;2.80;;;2.00;;
39612;SDS011;25303;48.896;13.342;2023-04-28T15:23:00;3.15;;;1.60;;
39612;SDS011;25303;48.896;13.342;2023-04-28T15:25:44;1.77;;;1.30;;
39612;SDS011;25303;48.896;13.342;2023-04-28T15:28:28;1.65;;;1.20;;
39612;SDS011;25303;48.896;13.342;2023-04-28T15:31:10;1.63;;;1.40;;
39612;SDS011;25303;48.896;13.342;2023-04-28T15:33:54;2.00;;;1.53;;
39612;SDS011;25303;48.896;13.342;2023-04-28T15:36:38;1.92;;;1.38;;
39612;SDS011;25303;48.896;13.342;2023-04-28T15:39:22;2.30;;;1.40;;
39612;SDS011;25303;48.896;13.342;2023-04-28T15:42:07;2.30;;;1.38;;
39612;SDS011;25303;48.896;13.342;2023-04-28T15:44:50;2.42;;;1.73;;
39612;SDS011;25303;48.896;13.342;2023-04-28T15:50:19;24.50;;;15.18;;
39612;SDS011;25303;48.896;13.342;2023-04-28T15:53:03;9.93;;;6.37;;
39612;SDS011;25303;48.896;13.342;2023-04-28T15:55:46;5.80;;;3.00;;
39612;SDS011;25303;48.896;13.342;2023-04-28T15:58:30;3.95;;;2.78;;
39612;SDS011;25303;48.896;13.342;2023-04-28T16:01:13;23.90;;;6.68;;
39612;SDS011;25303;48.896;13.342;2023-04-28T16:03:56;6.72;;;4.55;;
39612;SDS011;25303;48.896;13.342;2023-04-28T16:06:39;3.33;;;2.70;;
39612;SDS011;25303;48.896;13.342;2023-04-28T16:09:22;7.07;;;2.78;;
39612;SDS011;25303;48.896;13.342;2023-04-28T16:12:05;5.55;;;4.03;;
39612;SDS011;25303;48.896;13.342;2023-04-28T16:14:50;8.02;;;5.88;;
39612;SDS011;25303;48.896;13.342;2023-04-28T16:17:34;3.83;;;2.78;;
39612;SDS011;25303;48.896;13.342;2023-04-28T16:20:18;3.55;;;2.40;;
39612;SDS011;25303;48.896;13.342;2023-04-28T16:23:03;11.77;;;3.30;;
39612;SDS011;25303;48.896;13.342;2023-04-28T16:25:46;15.20;;;5.00;;
39612;SDS011;25303;48.896;13.342;2023-04-28T16:28:31;3.42;;;2.78;;
39612;SDS011;25303;48.896;13.342;2023-04-28T16:31:16;2.25;;;1.80;;
39612;SDS011;25303;48.896;13.342;2023-04-28T16:33:59;2.40;;;1.63;;
39612;SDS011;25303;48.896;13.342;2023-04-28T16:36:42;2.65;;;1.42;;
39612;SDS011;25303;48.896;13.342;2023-04-28T16:39:24;1.63;;;1.30;;
39612;SDS011;25303;48.896;13.342;2023-04-28T16:42:08;2.67;;;1.40;;